Burlington, Indiana
Current Conditions -  °F | °C
As of 1:55 PM on Sunday 23 Nov 2014 (Local Time) from KGGP Reporting Station
Moderate Rain Moderate Rain  
Wind Chill: 50°   Ceiling: 600
Heat Index: 50°   Visibility: 4mi
Dew Point: 48°   Wind: 12mph
Humidity: 94%   Direction: 160°SSE
Pressure: 29.66"   Gusts: 16mph
Location:  40.48°N, 86.39°W
Report Text: KGGP 231855Z AUTO 16010G14KT 4SM RA BKN006 OVC014 10/09 A2966 RMK AO2 P0001
Loading
Personal Weather Stations






























Interactive Weather Map New forecast layout! Learn more

10-Day Weather Forecast

Advertisements
Track Severe Weather on mobile